createdAt,value
2022-10-28T00:00:57.153Z,99.99
2022-10-28T00:01:57.062Z,99.99
2022-10-28T00:02:57.818Z,99.99
2022-10-28T00:03:56.854Z,99.99
2022-10-28T00:04:57.136Z,99.99
2022-10-28T00:05:57.124Z,99.99
2022-10-28T00:06:56.837Z,99.99
2022-10-28T00:07:57.594Z,99.99
2022-10-28T00:08:56.812Z,99.99
2022-10-28T00:09:57.062Z,99.99
2022-10-28T00:10:57.049Z,99.99
2022-10-28T00:11:56.789Z,99.99
2022-10-28T00:12:56.773Z,99.99
2022-10-28T00:13:57.025Z,99.99
2022-10-28T00:14:56.757Z,99.99
2022-10-28T00:15:56.743Z,99.99
2022-10-28T00:16:56.998Z,99.99
2022-10-28T00:17:57.149Z,99.99
2022-10-28T00:18:56.910Z,99.99
2022-10-28T00:19:57.157Z,99.99
2022-10-28T00:20:56.922Z,99.99
2022-10-28T00:21:57.163Z,99.99
2022-10-28T00:22:57.127Z,99.99
2022-10-28T00:23:56.872Z,99.99
2022-10-28T00:24:56.858Z,99.99
2022-10-28T00:25:56.848Z,99.99
2022-10-28T00:26:57.094Z,99.99
2022-10-28T00:27:57.170Z,99.99
2022-10-28T00:28:56.823Z,99.99
2022-10-28T00:29:57.067Z,99.99
2022-10-28T00:30:56.805Z,99.99
2022-10-28T00:31:56.794Z,99.99
2022-10-28T00:32:57.096Z,99.99
2022-10-28T00:33:57.038Z,99.99
2022-10-28T00:34:57.017Z,99.99
2022-10-28T00:35:56.760Z,99.99
2022-10-28T00:36:57.032Z,99.99
2022-10-28T00:37:57.084Z,99.99
2022-10-28T00:38:56.987Z,99.99
2022-10-28T00:39:56.973Z,99.99
2022-10-28T00:40:56.708Z,99.99
2022-10-28T00:41:56.970Z,99.99
2022-10-28T00:42:57.240Z,99.99
2022-10-28T00:43:56.945Z,99.99
2022-10-28T00:44:56.927Z,99.99
2022-10-28T00:45:56.917Z,99.99
2022-10-28T00:46:56.652Z,99.99
2022-10-28T00:47:57.387Z,99.99
2022-10-28T00:48:56.905Z,99.99
2022-10-28T00:49:56.880Z,99.99
2022-10-28T00:50:56.870Z,99.99
2022-10-28T00:51:56.608Z,99.99
2022-10-28T00:52:56.883Z,99.99
2022-10-28T00:53:56.867Z,99.99
2022-10-28T00:54:56.832Z,99.99
2022-10-28T00:55:56.826Z,99.99
2022-10-28T00:56:56.569Z,99.99
2022-10-28T00:57:56.868Z,99.99
2022-10-28T00:58:56.542Z,99.99
2022-10-28T00:59:56.532Z,99.99
2022-10-28T01:00:56.780Z,99.99
2022-10-28T01:01:57.149Z,99.99
2022-10-28T01:02:56.757Z,99.99
2022-10-28T01:03:56.752Z,99.99
2022-10-28T01:04:56.745Z,99.99
2022-10-28T01:05:56.739Z,99.99
2022-10-28T01:06:56.468Z,99.99
2022-10-28T01:07:57.388Z,99.99
2022-10-28T01:09:01.573Z,99.99
2022-10-28T01:09:56.721Z,99.99
2022-10-28T01:10:56.689Z,99.99
2022-10-28T01:11:56.675Z,99.99
2022-10-28T01:12:56.863Z,99.99
2022-10-28T01:13:56.662Z,99.99
2022-10-28T01:14:56.656Z,99.99
2022-10-28T01:15:56.384Z,99.99
2022-10-28T01:16:56.635Z,99.99
2022-10-28T01:17:56.625Z,99.99
2022-10-28T01:18:56.625Z,99.99
2022-10-28T01:19:56.612Z,99.99
2022-10-28T01:20:56.604Z,99.99
2022-10-28T01:21:56.588Z,99.99
2022-10-28T01:22:57.111Z,99.99
2022-10-28T01:23:56.315Z,99.99
2022-10-28T01:24:56.326Z,99.99
2022-10-28T01:25:56.577Z,99.99
2022-10-28T01:26:56.550Z,99.99
2022-10-28T01:27:56.281Z,99.99
2022-10-28T01:28:56.269Z,99.99
2022-10-28T01:29:56.519Z,99.99
2022-10-28T01:30:56.511Z,99.99
2022-10-28T01:31:56.243Z,99.99
2022-10-28T01:32:56.853Z,99.99
2022-10-28T01:33:56.225Z,99.99
2022-10-28T01:34:56.471Z,99.99
2022-10-28T01:35:56.201Z,99.99
2022-10-28T01:36:56.198Z,99.99
2022-10-28T01:37:57.051Z,99.99
2022-10-28T01:38:56.437Z,99.99
2022-10-28T01:39:56.421Z,99.99
2022-10-28T01:40:56.451Z,99.99
2022-10-28T01:41:56.434Z,99.99
2022-10-28T01:42:56.409Z,99.99
2022-10-28T01:43:56.132Z,99.99
2022-10-28T01:44:56.128Z,99.99
2022-10-28T01:45:56.372Z,99.99
2022-10-28T01:46:56.361Z,99.99
2022-10-28T01:47:56.894Z,99.99
2022-10-28T01:48:56.350Z,99.99
2022-10-28T01:49:56.079Z,99.99
2022-10-28T01:50:56.338Z,99.99
2022-10-28T01:51:56.316Z,99.99
2022-10-28T01:52:56.681Z,99.99
2022-10-28T01:53:56.298Z,99.99
2022-10-28T01:54:56.035Z,99.99
2022-10-28T01:55:56.027Z,99.99
2022-10-28T01:56:56.039Z,99.99
2022-10-28T01:57:56.292Z,99.99
2022-10-28T01:58:56.259Z,99.99
2022-10-28T01:59:56.241Z,99.99
2022-10-28T02:00:56.446Z,99.99
2022-10-28T02:01:56.511Z,99.99
2022-10-28T02:02:56.871Z,99.99
2022-10-28T02:03:55.958Z,99.99
2022-10-28T02:04:55.943Z,99.99
2022-10-28T02:05:56.195Z,99.99
2022-10-28T02:06:56.188Z,99.99
2022-10-28T02:07:55.920Z,99.99
2022-10-28T02:08:55.905Z,99.99
2022-10-28T02:09:55.900Z,99.99
2022-10-28T02:10:56.145Z,99.99
2022-10-28T02:11:56.151Z,99.99
2022-10-28T02:12:56.579Z,99.99
2022-10-28T02:13:56.154Z,99.99
2022-10-28T02:14:55.886Z,99.99
2022-10-28T02:15:56.108Z,99.99
2022-10-28T02:16:55.833Z,99.99
2022-10-28T02:17:56.665Z,99.99
2022-10-28T02:18:56.073Z,99.99
2022-10-28T02:19:55.815Z,99.99
2022-10-28T02:20:56.059Z,99.99
2022-10-28T02:21:55.794Z,99.99
2022-10-28T02:22:55.782Z,99.99
2022-10-28T02:23:55.771Z,99.99
2022-10-28T02:24:56.018Z,99.99
2022-10-28T02:25:56.014Z,99.99
2022-10-28T02:26:55.746Z,99.99
2022-10-28T02:27:56.624Z,99.99
2022-10-28T02:28:55.752Z,99.99
2022-10-28T02:29:56.011Z,99.99
2022-10-28T02:30:55.972Z,99.99
2022-10-28T02:31:55.958Z,99.99
2022-10-28T02:32:56.486Z,99.99
2022-10-28T02:33:55.938Z,99.99
2022-10-28T02:34:55.927Z,99.99
2022-10-28T02:35:55.667Z,99.99
2022-10-28T02:36:55.651Z,99.99
2022-10-28T02:37:55.647Z,99.99
2022-10-28T02:38:55.891Z,99.99
2022-10-28T02:39:55.633Z,99.99
2022-10-28T02:40:55.606Z,99.99
2022-10-28T02:41:55.862Z,99.99
2022-10-28T02:42:56.597Z,99.99
2022-10-28T02:43:55.875Z,99.99
2022-10-28T02:44:55.601Z,99.99
2022-10-28T02:45:55.848Z,99.99
2022-10-28T02:46:55.818Z,99.99
2022-10-28T02:47:55.809Z,99.99
2022-10-28T02:48:55.795Z,99.99
2022-10-28T02:49:55.530Z,99.99
2022-10-28T02:50:55.784Z,99.99
2022-10-28T02:51:55.517Z,99.99
2022-10-28T02:52:56.092Z,99.99
2022-10-28T02:53:55.496Z,99.99
2022-10-28T02:54:55.742Z,99.99
2022-10-28T02:55:55.478Z,99.99
2022-10-28T02:56:55.466Z,99.99
2022-10-28T02:57:56.026Z,99.99
2022-10-28T02:58:55.703Z,99.99
2022-10-28T02:59:55.691Z,99.99
2022-10-28T03:00:55.878Z,99.99
2022-10-28T03:01:56.154Z,99.99
2022-10-28T03:02:55.665Z,99.99
2022-10-28T03:03:55.661Z,99.99
2022-10-28T03:04:55.654Z,99.99
2022-10-28T03:05:55.384Z,99.99
2022-10-28T03:06:55.376Z,99.99
2022-10-28T03:07:56.163Z,99.99
2022-10-28T03:08:55.358Z,99.99
2022-10-28T03:09:55.601Z,99.99
2022-10-28T03:10:55.590Z,99.99
2022-10-28T03:11:55.575Z,99.99
2022-10-28T03:12:55.586Z,99.99
2022-10-28T03:13:55.304Z,99.99
2022-10-28T03:14:55.552Z,99.99
2022-10-28T03:15:55.546Z,99.99
2022-10-28T03:16:55.560Z,99.99
2022-10-28T03:17:56.172Z,99.99
2022-10-28T03:18:55.377Z,99.99
2022-10-28T03:19:55.505Z,99.99
2022-10-28T03:20:59.263Z,99.99
2022-10-28T03:21:55.483Z,99.99
2022-10-28T03:22:56.195Z,99.99
2022-10-28T03:23:55.461Z,99.99
2022-10-28T03:24:55.209Z,99.99
2022-10-28T03:25:55.444Z,99.99
2022-10-28T03:26:55.449Z,99.99
2022-10-28T03:27:55.430Z,99.99
2022-10-28T03:28:56.106Z,99.99
2022-10-28T03:29:56.091Z,99.99
2022-10-28T03:30:55.825Z,99.99
2022-10-28T03:31:56.069Z,99.99
2022-10-28T03:49:59.705Z,99.99
2022-10-28T03:50:59.330Z,99.99
2022-10-28T03:51:59.581Z,99.99
2022-10-28T03:52:59.570Z,99.99
2022-10-28T03:53:59.292Z,99.99
2022-10-28T03:54:59.286Z,99.99
2022-10-28T03:55:59.528Z,99.99
2022-10-28T03:56:59.257Z,99.99
2022-10-28T03:57:59.739Z,99.99
2022-10-28T03:58:59.494Z,99.99
2022-10-28T03:59:59.487Z,99.99
2022-10-28T04:00:59.309Z,99.99
2022-10-28T04:01:59.525Z,99.99
2022-10-28T04:02:59.514Z,99.99
2022-10-28T04:03:59.183Z,99.99
2022-10-28T04:04:59.577Z,99.99
2022-10-28T04:05:59.508Z,99.99
2022-10-28T04:06:59.153Z,99.99
2022-10-28T04:07:59.142Z,99.99
2022-10-28T04:08:59.445Z,99.99
2022-10-28T04:09:59.131Z,99.99
2022-10-28T04:10:59.364Z,99.99
2022-10-28T04:11:59.469Z,99.99
2022-10-28T04:12:59.090Z,99.99
2022-10-28T04:13:59.338Z,99.99
2022-10-28T04:14:59.070Z,99.99
2022-10-28T04:15:59.318Z,99.99
2022-10-28T04:16:59.303Z,99.99
2022-10-28T04:17:59.041Z,99.99
2022-10-28T04:18:59.295Z,99.99
2022-10-28T04:19:59.280Z,99.99
2022-10-28T04:20:59.263Z,99.99
2022-10-28T04:21:59.302Z,99.99
2022-10-28T04:23:00.083Z,99.99
2022-10-28T04:23:59.245Z,99.99
2022-10-28T04:24:58.972Z,99.99
2022-10-28T04:25:59.222Z,99.99
2022-10-28T04:26:58.959Z,99.99
2022-10-28T04:27:59.509Z,99.99
2022-10-28T04:28:58.934Z,99.99
2022-10-28T04:29:59.181Z,99.99
2022-10-28T04:30:59.169Z,99.99
2022-10-28T04:31:59.191Z,99.99
2022-10-28T04:32:58.894Z,99.99
2022-10-28T04:33:58.890Z,99.99
2022-10-28T04:34:59.138Z,99.99
2022-10-28T04:35:59.127Z,99.99
2022-10-28T04:36:58.867Z,99.99
2022-10-28T04:37:59.536Z,99.99
2022-10-28T04:38:59.101Z,99.99
2022-10-28T04:39:59.091Z,99.99
2022-10-28T04:40:59.084Z,99.99
2022-10-28T04:41:59.070Z,99.99
2022-10-28T04:42:58.908Z,99.99
2022-10-28T04:43:58.792Z,99.99
2022-10-28T04:44:58.787Z,99.99
2022-10-28T04:45:59.035Z,99.99
2022-10-28T04:46:59.022Z,99.99
2022-10-28T04:47:59.011Z,99.99
2022-10-28T04:48:58.753Z,99.99
2022-10-28T04:49:58.993Z,99.99
2022-10-28T04:50:58.727Z,99.99
2022-10-28T04:51:58.723Z,99.99
2022-10-28T04:52:58.973Z,99.99
2022-10-28T04:53:59.013Z,99.99
2022-10-28T04:54:58.953Z,99.99
2022-10-28T04:55:58.935Z,99.99
2022-10-28T04:56:58.931Z,99.99
2022-10-28T04:57:58.670Z,99.99
2022-10-28T04:58:58.911Z,99.99
2022-10-28T04:59:58.901Z,99.99
2022-10-28T05:00:59.038Z,99.99
2022-10-28T05:01:58.863Z,99.99
2022-10-28T05:02:59.457Z,99.99
2022-10-28T05:03:58.864Z,99.99
2022-10-28T05:04:58.860Z,99.99
2022-10-28T05:05:58.845Z,99.99
2022-10-28T05:06:58.839Z,99.99
2022-10-28T05:07:59.352Z,99.99
2022-10-28T05:08:58.824Z,99.99
2022-10-28T05:09:58.849Z,99.99
2022-10-28T05:10:58.799Z,99.99
2022-10-28T05:11:58.537Z,99.99
2022-10-28T05:12:58.526Z,99.99
2022-10-28T05:13:58.778Z,99.99
2022-10-28T05:14:58.515Z,99.99
2022-10-28T05:15:58.755Z,99.99
2022-10-28T05:16:58.491Z,99.99
2022-10-28T05:17:58.790Z,99.99
2022-10-28T05:18:58.475Z,99.99
2022-10-28T05:19:58.713Z,99.99
2022-10-28T05:20:58.710Z,99.99
2022-10-28T05:21:58.444Z,99.99
2022-10-28T05:22:58.827Z,99.99
2022-10-28T05:23:58.421Z,99.99
2022-10-28T05:24:58.424Z,99.99
2022-10-28T05:25:58.703Z,99.99
2022-10-28T05:26:58.398Z,99.99
2022-10-28T05:27:58.389Z,99.99
2022-10-28T05:28:58.646Z,99.99
2022-10-28T05:29:58.621Z,99.99
2022-10-28T05:30:58.614Z,99.99
2022-10-28T05:31:58.448Z,99.99
2022-10-28T05:32:59.316Z,99.99
2022-10-28T05:33:58.592Z,99.99
2022-10-28T05:34:58.579Z,99.99
2022-10-28T05:35:58.568Z,99.99
2022-10-28T05:36:58.298Z,99.99
2022-10-28T05:37:58.563Z,99.99
2022-10-28T05:38:58.842Z,99.99
2022-10-28T05:39:58.272Z,99.99
2022-10-28T05:40:58.529Z,99.99
2022-10-28T05:41:58.759Z,99.99
2022-10-28T05:42:58.654Z,99.99
2022-10-28T05:43:58.251Z,99.99
2022-10-28T05:44:58.803Z,99.99
2022-10-28T05:45:58.488Z,99.99
2022-10-28T05:46:58.479Z,99.99
2022-10-28T05:47:58.806Z,99.99
2022-10-28T05:48:58.195Z,99.99
2022-10-28T05:49:58.449Z,99.99
2022-10-28T05:50:58.442Z,99.99
2022-10-28T05:51:58.432Z,99.99
2022-10-28T05:52:58.414Z,99.99
2022-10-28T05:53:58.157Z,99.99
2022-10-28T05:54:58.397Z,99.99
2022-10-28T05:55:58.138Z,99.99
2022-10-28T05:56:58.122Z,99.99
2022-10-28T05:57:59.324Z,99.99
2022-10-28T05:58:58.112Z,99.99
2022-10-28T05:59:58.354Z,99.99
2022-10-28T06:00:58.352Z,99.99
2022-10-28T06:01:58.360Z,99.99
2022-10-28T06:02:58.821Z,99.99
2022-10-28T06:03:58.440Z,99.99
2022-10-28T06:04:58.301Z,99.99
2022-10-28T06:05:58.035Z,99.99
2022-10-28T06:06:58.025Z,99.99
2022-10-28T06:07:58.013Z,99.99
2022-10-28T06:08:58.265Z,99.99
2022-10-28T06:09:58.256Z,99.99
2022-10-28T06:10:56.459Z,99.99
2022-10-28T06:11:56.702Z,99.99
2022-10-28T06:12:57.174Z,99.99
2022-10-28T06:13:56.725Z,99.99
2022-10-28T06:14:56.677Z,99.99
2022-10-28T06:15:56.416Z,99.99
2022-10-28T06:16:56.401Z,99.99
2022-10-28T06:17:56.404Z,99.99
2022-10-28T06:18:56.648Z,99.99
2022-10-28T06:19:56.393Z,99.99
2022-10-28T06:20:56.638Z,99.99
2022-10-28T06:21:56.633Z,99.99
2022-10-28T06:22:56.903Z,99.99
2022-10-28T06:23:56.353Z,99.99
2022-10-28T06:24:56.595Z,99.99
2022-10-28T06:26:56.329Z,99.99
2022-10-28T06:27:57.118Z,99.99
2022-10-28T06:28:56.305Z,99.99
2022-10-28T06:29:56.612Z,99.99
2022-10-28T06:30:56.289Z,99.99
2022-10-28T06:31:56.534Z,99.99
2022-10-28T06:32:56.540Z,99.99
2022-10-28T06:33:56.261Z,99.99
2022-10-28T06:34:56.523Z,99.99
2022-10-28T06:35:56.501Z,99.99
2022-10-28T06:36:56.512Z,99.99
2022-10-28T06:37:56.983Z,99.99
2022-10-28T06:38:56.218Z,99.99
2022-10-28T06:39:56.465Z,99.99
2022-10-28T06:40:56.464Z,99.99
2022-10-28T06:41:56.455Z,99.99
2022-10-28T06:42:56.806Z,99.99
2022-10-28T06:43:56.429Z,99.99
2022-10-28T06:44:56.427Z,99.99
2022-10-28T06:45:56.459Z,99.99
2022-10-28T06:46:57.662Z,99.99
2022-10-28T06:47:57.913Z,99.99
2022-10-28T06:48:57.906Z,99.99
2022-10-28T06:49:57.889Z,99.99
2022-10-28T06:50:57.888Z,99.99
2022-10-28T06:51:57.893Z,99.99
2022-10-28T06:52:57.866Z,99.99
2022-10-28T06:53:57.860Z,99.99
2022-10-28T06:54:57.851Z,99.99
2022-10-28T06:55:57.839Z,99.99
2022-10-28T06:56:57.829Z,99.99
2022-10-28T06:57:58.302Z,99.99
2022-10-28T06:58:57.564Z,99.99
2022-10-28T06:59:57.546Z,99.99
2022-10-28T07:00:57.801Z,99.99
2022-10-28T07:01:58.041Z,99.99
2022-10-28T07:02:58.653Z,99.99
2022-10-28T07:03:57.774Z,99.99
2022-10-28T07:04:57.766Z,99.99
2022-10-28T07:05:57.498Z,99.99
2022-10-28T07:06:57.756Z,99.99
2022-10-28T07:07:58.230Z,99.99
2022-10-28T07:08:57.738Z,99.99
2022-10-28T07:09:57.466Z,99.99
2022-10-28T07:10:57.484Z,99.99
2022-10-28T07:12:03.789Z,99.99
2022-10-28T07:12:58.277Z,99.99
2022-10-28T07:13:57.686Z,99.99
2022-10-28T07:14:57.687Z,99.99
2022-10-28T07:15:57.419Z,99.99
2022-10-28T07:16:57.665Z,99.99
2022-10-28T07:17:57.812Z,99.99
2022-10-28T07:18:57.398Z,99.99
2022-10-28T07:19:57.384Z,99.99
2022-10-28T07:20:57.634Z,99.99
2022-10-28T07:21:57.368Z,99.99
2022-10-28T07:22:57.974Z,99.99
2022-10-28T07:23:57.625Z,99.99
2022-10-28T07:24:57.602Z,99.99
2022-10-28T07:25:57.414Z,99.99
2022-10-28T07:27:00.184Z,99.99
2022-10-28T07:27:58.120Z,99.99
2022-10-28T07:28:57.567Z,99.99
2022-10-28T07:29:57.303Z,99.99
2022-10-28T07:30:57.319Z,99.99
2022-10-28T07:31:57.790Z,99.99
2022-10-28T07:32:58.001Z,99.99
2022-10-28T07:33:57.589Z,99.99
2022-10-28T07:34:57.527Z,99.99
2022-10-28T07:35:57.519Z,99.99
2022-10-28T07:36:57.506Z,99.99
2022-10-28T07:37:57.502Z,99.99
2022-10-28T07:38:57.238Z,99.99
2022-10-28T07:39:57.488Z,99.99
2022-10-28T07:40:57.478Z,99.99
2022-10-28T07:41:57.214Z,99.99
2022-10-28T07:42:57.996Z,99.99
2022-10-28T07:43:57.196Z,99.99
2022-10-28T07:44:57.458Z,99.99
2022-10-28T07:45:57.445Z,99.99
2022-10-28T07:47:00.697Z,99.99
2022-10-28T07:47:57.425Z,99.99
2022-10-28T07:48:57.155Z,99.99
2022-10-28T07:49:57.458Z,99.99
2022-10-28T07:50:57.395Z,99.99
2022-10-28T07:51:57.130Z,99.99
2022-10-28T07:52:57.866Z,99.99
2022-10-28T07:53:57.373Z,99.99
2022-10-28T07:54:57.109Z,99.99
2022-10-28T07:55:57.362Z,99.99
2022-10-28T07:56:57.092Z,99.99
2022-10-28T07:57:57.778Z,99.99
2022-10-28T07:58:57.324Z,99.99
2022-10-28T07:59:57.321Z,99.99
2022-10-28T08:00:57.430Z,99.99
2022-10-28T08:01:57.442Z,99.99
2022-10-28T08:02:57.298Z,99.99
2022-10-28T08:03:57.286Z,99.99
2022-10-28T08:04:57.018Z,99.99
2022-10-28T08:06:01.996Z,99.99
2022-10-28T08:06:56.989Z,99.99
2022-10-28T08:07:57.634Z,99.99
2022-10-28T08:08:57.256Z,99.99
2022-10-28T08:09:57.222Z,99.99
2022-10-28T08:10:56.963Z,99.99
2022-10-28T08:11:57.208Z,99.99
2022-10-28T08:12:56.942Z,99.99
2022-10-28T08:13:57.191Z,99.99
2022-10-28T08:14:56.922Z,99.99
2022-10-28T08:15:57.175Z,99.99
2022-10-28T08:16:57.158Z,99.99
2022-10-28T08:17:57.867Z,99.99
2022-10-28T08:18:56.887Z,99.99
2022-10-28T08:19:57.129Z,99.99
2022-10-28T08:20:56.982Z,99.99
2022-10-28T08:21:57.166Z,99.99
2022-10-28T08:22:57.511Z,99.99
2022-10-28T08:23:57.109Z,99.99
2022-10-28T08:24:57.097Z,99.99
2022-10-28T08:25:57.084Z,99.99
2022-10-28T08:26:57.079Z,99.99
2022-10-28T08:27:56.818Z,99.99
2022-10-28T08:28:57.072Z,99.99
2022-10-28T08:29:57.052Z,99.99
2022-10-28T08:31:11.066Z,99.99
2022-10-28T08:31:56.787Z,99.99
2022-10-28T08:32:57.517Z,99.99
2022-10-28T08:33:56.771Z,99.99
2022-10-28T08:34:56.769Z,99.99
2022-10-28T08:35:57.013Z,99.99
2022-10-28T08:36:57.152Z,99.99
2022-10-28T08:37:57.591Z,99.99
2022-10-28T08:38:56.736Z,99.99
2022-10-28T08:39:56.730Z,99.99
2022-10-28T08:40:56.728Z,99.99
2022-10-28T08:41:56.977Z,99.99
2022-10-28T08:42:57.221Z,99.99
2022-10-28T08:44:00.269Z,99.99
2022-10-28T08:44:56.962Z,99.99
2022-10-28T08:45:56.945Z,99.99
2022-10-28T08:46:56.684Z,99.99
2022-10-28T08:47:57.519Z,99.99
2022-10-28T08:48:56.930Z,99.99
2022-10-28T08:49:56.919Z,99.99
2022-10-28T08:50:56.660Z,99.99
2022-10-28T08:51:56.654Z,99.99
2022-10-28T08:52:57.520Z,99.99
2022-10-28T08:53:56.940Z,99.99
2022-10-28T08:54:56.896Z,99.99
2022-10-28T08:55:56.625Z,99.99
2022-10-28T08:56:56.618Z,99.99
2022-10-28T08:57:56.610Z,99.99
2022-10-28T08:58:56.859Z,99.99
2022-10-28T08:59:56.851Z,99.99
2022-10-28T09:00:57.014Z,99.99
2022-10-28T09:01:57.580Z,99.99
2022-10-28T09:02:57.410Z,99.99
2022-10-28T09:03:56.827Z,99.99
2022-10-28T09:04:56.826Z,99.99
2022-10-28T09:05:56.815Z,99.99
2022-10-28T09:06:56.800Z,99.99
2022-10-28T09:07:56.801Z,99.99
2022-10-28T09:08:56.535Z,99.99
2022-10-28T09:09:56.861Z,99.99
2022-10-28T09:10:56.816Z,99.99
2022-10-28T09:11:56.774Z,99.99
2022-10-28T09:12:57.185Z,99.99
2022-10-28T09:13:56.781Z,99.99
2022-10-28T09:14:56.750Z,99.99
2022-10-28T09:15:56.490Z,99.99
2022-10-28T09:16:56.739Z,99.99
2022-10-28T09:17:57.338Z,99.99
2022-10-28T09:18:56.731Z,99.99
2022-10-28T09:19:56.462Z,99.99
2022-10-28T09:20:56.717Z,99.99
2022-10-28T09:21:56.457Z,99.99
2022-10-28T09:22:57.478Z,99.99
2022-10-28T09:23:56.699Z,99.99
2022-10-28T09:24:56.688Z,99.99
2022-10-28T09:25:56.732Z,99.99
2022-10-28T09:26:56.676Z,99.99
2022-10-28T09:27:57.307Z,99.99
2022-10-28T09:28:56.827Z,99.99
2022-10-28T09:29:56.668Z,99.99
2022-10-28T09:30:56.658Z,99.99
2022-10-28T09:31:56.649Z,99.99
2022-10-28T09:32:57.242Z,99.99
2022-10-28T09:33:56.641Z,99.99
2022-10-28T09:34:56.626Z,99.99
2022-10-28T09:35:56.648Z,99.99
2022-10-28T09:36:56.620Z,99.99
2022-10-28T09:37:56.619Z,99.99
2022-10-28T09:38:56.601Z,99.99
2022-10-28T09:39:56.351Z,99.99
2022-10-28T09:40:56.599Z,99.99
2022-10-28T09:41:56.647Z,99.99
2022-10-28T09:42:56.328Z,99.99
2022-10-28T09:43:56.326Z,99.99
2022-10-28T09:44:56.319Z,99.99
2022-10-28T09:45:56.605Z,99.99
2022-10-28T09:46:56.561Z,99.87
2022-10-28T09:47:57.135Z,99.78
2022-10-28T09:48:56.552Z,99.1
2022-10-28T09:49:56.291Z,98.34
2022-10-28T09:50:56.556Z,97.38
2022-10-28T09:51:56.563Z,98.43
2022-10-28T09:52:56.538Z,97.96
2022-10-28T09:53:56.531Z,97.47
2022-10-28T09:54:56.535Z,96.99
2022-10-28T09:55:57.423Z,96.13
2022-10-28T09:56:57.316Z,95.45
2022-10-28T09:57:58.137Z,95.07
2022-10-28T09:58:57.310Z,95.7
2022-10-28T09:59:57.041Z,95.5
2022-10-28T10:00:57.297Z,94.35
2022-10-28T10:01:57.508Z,93.29
2022-10-28T10:02:57.449Z,92.72
2022-10-28T10:03:57.278Z,92.43
2022-10-28T10:04:57.281Z,92.76
2022-10-28T10:05:57.271Z,93.05
2022-10-28T10:06:57.028Z,93.05
2022-10-28T10:07:57.858Z,92.76
2022-10-28T10:08:56.999Z,92.76
2022-10-28T10:09:57.357Z,92.86
2022-10-28T10:10:57.015Z,92.62
2022-10-28T10:11:57.250Z,92.81
2022-10-28T10:12:57.781Z,92.91
2022-10-28T10:13:57.288Z,92.62
2022-10-28T10:14:57.276Z,93.01
2022-10-28T10:15:57.226Z,93.44
2022-10-28T10:16:57.229Z,93.54
2022-10-28T10:17:57.450Z,93.25
2022-10-28T10:18:57.700Z,92.77
2022-10-28T10:19:57.693Z,92.57
2022-10-28T10:20:57.693Z,92
2022-10-28T10:21:57.429Z,91.52
2022-10-28T10:22:57.976Z,91.9
2022-10-28T10:23:57.425Z,91.38
2022-10-28T10:24:57.799Z,90.94
2022-10-28T10:25:57.418Z,90.03
2022-10-28T10:26:57.429Z,90.37
2022-10-28T10:27:58.289Z,90.27
2022-10-28T10:28:57.658Z,89.94
2022-10-28T10:29:57.704Z,90.32
2022-10-28T10:30:57.649Z,89.75
2022-10-28T10:31:57.381Z,90.27
2022-10-28T10:32:57.640Z,90.46
2022-10-28T10:33:57.383Z,90.56
2022-10-28T10:34:57.649Z,90.52
2022-10-28T10:36:02.276Z,90.9
2022-10-28T10:36:57.417Z,91.09
2022-10-28T10:37:58.215Z,90.99
2022-10-28T10:38:57.352Z,91.38
2022-10-28T10:39:57.601Z,90.9
2022-10-28T10:40:57.603Z,91.57
2022-10-28T10:41:57.593Z,91.66
2022-10-28T10:43:15.830Z,91.19
2022-10-28T10:43:57.669Z,91.19
2022-10-28T10:44:57.675Z,91.66
2022-10-28T10:45:57.632Z,91.28
2022-10-28T10:46:58.898Z,91.09
2022-10-28T10:47:58.167Z,91.19
2022-10-28T10:48:57.559Z,91.38
2022-10-28T10:49:57.561Z,91.76
2022-10-28T10:50:57.296Z,91.76
2022-10-28T10:51:57.562Z,91.66
2022-10-28T10:52:57.885Z,91.86
2022-10-28T10:53:57.538Z,92.43
2022-10-28T10:54:57.526Z,92
2022-10-28T10:55:57.518Z,91.42
2022-10-28T10:57:57.989Z,90.56
2022-10-28T10:58:57.513Z,89.98
2022-10-28T10:59:57.245Z,88.54
2022-10-28T11:00:57.248Z,88.1
2022-10-28T11:01:57.885Z,88.2
2022-10-28T11:02:58.611Z,87.15
2022-10-28T11:04:57.477Z,85.89
2022-10-28T11:06:24.693Z,85.89
2022-10-28T11:06:57.212Z,85.75
2022-10-28T11:07:58.063Z,84.88
2022-10-28T11:08:57.462Z,84.98
2022-10-28T11:09:57.458Z,84.59
2022-10-28T11:10:57.450Z,84.63
2022-10-28T11:11:57.444Z,84.34
2022-10-28T11:12:57.955Z,83.42
2022-10-28T11:13:57.184Z,82.08
2022-10-28T11:14:57.180Z,81.7
2022-10-28T11:15:57.431Z,81.88
2022-10-28T11:16:57.430Z,81.02
2022-10-28T11:17:58.216Z,80.73
2022-10-28T11:18:57.165Z,81.4
2022-10-28T11:19:57.417Z,80.83
2022-10-28T11:20:57.412Z,81.3
2022-10-28T11:21:57.414Z,81.02
2022-10-28T11:22:57.817Z,80.69
2022-10-28T11:23:57.398Z,80.6
2022-10-28T11:24:57.459Z,80.88
2022-10-28T11:25:57.141Z,80.98
2022-10-28T11:26:57.442Z,80.88
2022-10-28T11:28:03.213Z,80.88
2022-10-28T11:28:57.124Z,80.88
2022-10-28T11:29:57.376Z,81.37
2022-10-28T11:30:57.255Z,82.04
2022-10-28T11:31:57.365Z,82.29
2022-10-28T11:33:34.723Z,81.84
2022-10-28T11:33:57.383Z,81.61
2022-10-28T11:34:57.161Z,81.81
2022-10-28T11:35:57.348Z,81.71
2022-10-28T11:36:57.350Z,81.52
2022-10-28T11:37:57.086Z,81.52
2022-10-28T11:38:57.354Z,81.42
2022-10-28T11:39:57.338Z,81.75
2022-10-28T11:40:57.330Z,81.84
2022-10-28T11:41:57.077Z,81.07
2022-10-28T11:42:58.075Z,81.12
2022-10-28T11:44:04.884Z,80.44
2022-10-28T11:44:57.227Z,80.06
2022-10-28T11:45:57.318Z,79.86
2022-10-28T11:46:59.624Z,79.92
2022-10-28T11:47:57.779Z,79.25
2022-10-28T11:48:57.330Z,79.44
2022-10-28T11:49:57.320Z,80.21
2022-10-28T11:50:57.035Z,80.27
2022-10-28T11:51:57.112Z,80.36
2022-10-28T11:52:57.025Z,80.75
2022-10-28T11:53:57.279Z,81.61
2022-10-28T11:54:57.476Z,81.23
2022-10-28T11:55:57.271Z,81.42
2022-10-28T11:56:57.267Z,81.04
2022-10-28T11:57:57.971Z,80.94
2022-10-28T11:58:57.264Z,81.23
2022-10-28T11:59:57.000Z,81.27
2022-10-28T12:00:57.260Z,80.84
2022-10-28T12:01:57.693Z,81.07
2022-10-28T12:02:58.061Z,81.07
2022-10-28T12:03:57.245Z,80.5
2022-10-28T12:04:57.003Z,80.69
2022-10-28T12:05:57.262Z,78.86
2022-10-28T12:06:57.229Z,78.96
2022-10-28T12:07:57.221Z,79.35
2022-10-28T12:08:57.051Z,78.77
2022-10-28T12:09:57.216Z,79.05
2022-10-28T12:10:56.956Z,78.96
2022-10-28T12:11:56.956Z,78.77
2022-10-28T12:12:57.965Z,78.77
2022-10-28T12:13:57.353Z,78.77
2022-10-28T12:14:57.204Z,78.58
2022-10-28T12:15:57.191Z,78.67
2022-10-28T12:16:57.188Z,78.28
2022-10-28T12:17:57.714Z,78.19
2022-10-28T12:18:57.186Z,77.81
2022-10-28T12:19:57.181Z,77.51
2022-10-28T12:20:57.316Z,77.61
2022-10-28T12:21:57.198Z,77.61
2022-10-28T12:22:57.512Z,77.38
2022-10-28T12:23:57.171Z,78.25
2022-10-28T12:24:57.038Z,78.25
2022-10-28T12:25:57.178Z,78.83
2022-10-28T12:26:57.153Z,78.73
2022-10-28T12:27:57.156Z,79.11
2022-10-28T12:28:56.887Z,79.4
2022-10-28T12:29:56.892Z,79.5
2022-10-28T12:30:57.130Z,79.69
2022-10-28T12:31:57.133Z,79.88
2022-10-28T12:32:57.521Z,80.55
2022-10-28T12:33:57.121Z,80.94
2022-10-28T12:34:57.116Z,81.13
2022-10-28T12:35:57.119Z,80.65
2022-10-28T12:36:57.140Z,81.04
2022-10-28T12:37:57.836Z,80.75
2022-10-28T12:38:56.848Z,80.94
2022-10-28T12:39:57.100Z,80.65
2022-10-28T12:40:57.093Z,80.65
2022-10-28T12:41:57.099Z,80.75
2022-10-28T12:42:57.745Z,80.84
2022-10-28T12:43:57.083Z,81.23
2022-10-28T12:44:57.271Z,80.36
2022-10-28T12:45:57.076Z,80.9
2022-10-28T12:46:57.076Z,81.09
2022-10-28T12:47:57.952Z,81.48
2022-10-28T12:48:57.057Z,81.48
2022-10-28T12:49:57.058Z,82.24
2022-10-28T12:50:57.048Z,82.15
2022-10-28T12:51:57.053Z,81.67
2022-10-28T12:52:56.812Z,81.38
2022-10-28T12:53:57.066Z,81.57
2022-10-28T12:54:57.175Z,81.28
2022-10-28T12:55:57.140Z,81.48
2022-10-28T12:56:57.023Z,82.05
2022-10-28T12:57:57.928Z,81.76
2022-10-28T12:58:57.154Z,80.8
2022-10-28T12:59:57.013Z,80.42
2022-10-28T13:00:56.871Z,79.46
2022-10-28T13:01:57.355Z,78.11
2022-10-28T13:02:57.588Z,77.34
2022-10-28T13:03:56.997Z,77.34
2022-10-28T13:04:56.986Z,77.25
2022-10-28T13:05:56.727Z,77.53
2022-10-28T13:06:56.979Z,77.06
2022-10-28T13:08:01.104Z,76.86
2022-10-28T13:09:56.991Z,76.14
2022-10-28T13:10:56.958Z,75.81
2022-10-28T13:11:56.706Z,75.75
2022-10-28T13:12:57.329Z,75.65
2022-10-28T13:13:57.163Z,75.46
2022-10-28T13:14:57.070Z,74.88